sensor_id;sensor_type;location;lat;lon;timestamp;temperature;humidity
5059;DHT22;2548;52.050;11.036;2024-02-23T00:00:28;10.40;99.90
5059;DHT22;2548;52.050;11.036;2024-02-23T00:02:56;10.30;99.90
5059;DHT22;2548;52.050;11.036;2024-02-23T00:05:24;10.20;99.90
5059;DHT22;2548;52.050;11.036;2024-02-23T00:07:51;10.20;99.90
5059;DHT22;2548;52.050;11.036;2024-02-23T00:10:18;10.10;99.90
5059;DHT22;2548;52.050;11.036;2024-02-23T00:12:47;10.10;99.90
5059;DHT22;2548;52.050;11.036;2024-02-23T00:15:14;10.00;99.90
5059;DHT22;2548;52.050;11.036;2024-02-23T00:17:42;10.00;99.90
5059;DHT22;2548;52.050;11.036;2024-02-23T00:20:10;10.00;99.90
5059;DHT22;2548;52.050;11.036;2024-02-23T00:22:37;10.00;99.90
5059;DHT22;2548;52.050;11.036;2024-02-23T00:25:05;10.00;99.90
5059;DHT22;2548;52.050;11.036;2024-02-23T00:27:33;9.90;99.90
5059;DHT22;2548;52.050;11.036;2024-02-23T00:30:03;9.80;99.90
5059;DHT22;2548;52.050;11.036;2024-02-23T00:32:31;9.80;99.90
5059;DHT22;2548;52.050;11.036;2024-02-23T00:34:58;9.80;99.90
5059;DHT22;2548;52.050;11.036;2024-02-23T00:37:26;9.80;99.90
5059;DHT22;2548;52.050;11.036;2024-02-23T00:39:53;9.70;99.90
5059;DHT22;2548;52.050;11.036;2024-02-23T00:42:20;9.70;99.90
5059;DHT22;2548;52.050;11.036;2024-02-23T00:44:48;9.70;99.90
5059;DHT22;2548;52.050;11.036;2024-02-23T00:47:16;9.70;99.90
5059;DHT22;2548;52.050;11.036;2024-02-23T00:49:44;9.70;99.90
5059;DHT22;2548;52.050;11.036;2024-02-23T00:52:11;9.70;99.90
5059;DHT22;2548;52.050;11.036;2024-02-23T00:54:39;9.60;99.90
5059;DHT22;2548;52.050;11.036;2024-02-23T00:57:06;9.50;99.90
5059;DHT22;2548;52.050;11.036;2024-02-23T00:59:34;9.50;99.90
5059;DHT22;2548;52.050;11.036;2024-02-23T01:02:01;9.40;99.90
5059;DHT22;2548;52.050;11.036;2024-02-23T01:04:30;9.30;99.90
5059;DHT22;2548;52.050;11.036;2024-02-23T01:06:58;9.20;99.90
5059;DHT22;2548;52.050;11.036;2024-02-23T01:09:26;9.20;99.90
5059;DHT22;2548;52.050;11.036;2024-02-23T01:11:53;9.10;99.90
5059;DHT22;2548;52.050;11.036;2024-02-23T01:14:21;9.10;99.90
5059;DHT22;2548;52.050;11.036;2024-02-23T01:16:49;9.10;99.90
5059;DHT22;2548;52.050;11.036;2024-02-23T01:19:16;9.10;99.90
5059;DHT22;2548;52.050;11.036;2024-02-23T01:21:46;9.20;99.90
5059;DHT22;2548;52.050;11.036;2024-02-23T01:24:15;9.20;99.90
5059;DHT22;2548;52.050;11.036;2024-02-23T01:26:42;9.20;99.90
5059;DHT22;2548;52.050;11.036;2024-02-23T01:29:10;9.30;99.90
5059;DHT22;2548;52.050;11.036;2024-02-23T01:31:42;9.30;99.90
5059;DHT22;2548;52.050;11.036;2024-02-23T01:34:10;9.20;99.90
5059;DHT22;2548;52.050;11.036;2024-02-23T01:36:37;9.20;99.90
5059;DHT22;2548;52.050;11.036;2024-02-23T01:39:06;9.20;99.90
5059;DHT22;2548;52.050;11.036;2024-02-23T01:41:35;9.20;99.90
5059;DHT22;2548;52.050;11.036;2024-02-23T01:44:04;9.20;99.90
5059;DHT22;2548;52.050;11.036;2024-02-23T01:46:31;9.20;99.90
5059;DHT22;2548;52.050;11.036;2024-02-23T01:48:59;9.10;99.90
5059;DHT22;2548;52.050;11.036;2024-02-23T01:51:27;9.10;99.90
5059;DHT22;2548;52.050;11.036;2024-02-23T01:53:54;9.10;99.90
5059;DHT22;2548;52.050;11.036;2024-02-23T01:56:23;9.20;99.90
5059;DHT22;2548;52.050;11.036;2024-02-23T01:58:52;9.20;99.90
5059;DHT22;2548;52.050;11.036;2024-02-23T02:01:20;9.20;99.90
5059;DHT22;2548;52.050;11.036;2024-02-23T02:03:47;9.20;99.90
5059;DHT22;2548;52.050;11.036;2024-02-23T02:06:15;9.20;99.90
5059;DHT22;2548;52.050;11.036;2024-02-23T02:08:43;9.10;99.90
5059;DHT22;2548;52.050;11.036;2024-02-23T02:11:10;9.00;99.90
5059;DHT22;2548;52.050;11.036;2024-02-23T02:13:39;9.00;99.90
5059;DHT22;2548;52.050;11.036;2024-02-23T02:16:07;9.00;99.90
5059;DHT22;2548;52.050;11.036;2024-02-23T02:18:35;9.00;99.90
5059;DHT22;2548;52.050;11.036;2024-02-23T02:21:03;9.00;99.90
5059;DHT22;2548;52.050;11.036;2024-02-23T02:23:31;9.00;99.90
5059;DHT22;2548;52.050;11.036;2024-02-23T02:25:59;9.00;99.90
5059;DHT22;2548;52.050;11.036;2024-02-23T02:28:26;8.90;99.90
5059;DHT22;2548;52.050;11.036;2024-02-23T02:30:55;8.90;99.90
5059;DHT22;2548;52.050;11.036;2024-02-23T02:33:23;8.90;99.90
5059;DHT22;2548;52.050;11.036;2024-02-23T02:35:51;8.80;99.90
5059;DHT22;2548;52.050;11.036;2024-02-23T02:38:18;8.80;99.90
5059;DHT22;2548;52.050;11.036;2024-02-23T02:40:46;8.70;99.90
5059;DHT22;2548;52.050;11.036;2024-02-23T02:43:13;8.70;99.90
5059;DHT22;2548;52.050;11.036;2024-02-23T02:45:41;8.70;99.90
5059;DHT22;2548;52.050;11.036;2024-02-23T02:48:09;8.60;99.90
5059;DHT22;2548;52.050;11.036;2024-02-23T02:50:37;8.60;99.90
5059;DHT22;2548;52.050;11.036;2024-02-23T02:53:04;8.60;99.90
5059;DHT22;2548;52.050;11.036;2024-02-23T02:55:32;8.60;99.90
5059;DHT22;2548;52.050;11.036;2024-02-23T02:57:59;8.60;99.90
5059;DHT22;2548;52.050;11.036;2024-02-23T03:00:27;8.50;99.90
5059;DHT22;2548;52.050;11.036;2024-02-23T03:02:54;8.50;99.90
5059;DHT22;2548;52.050;11.036;2024-02-23T03:05:23;8.40;99.90
5059;DHT22;2548;52.050;11.036;2024-02-23T03:07:50;8.20;99.90
5059;DHT22;2548;52.050;11.036;2024-02-23T03:10:18;8.10;99.90
5059;DHT22;2548;52.050;11.036;2024-02-23T03:12:45;7.90;99.90
5059;DHT22;2548;52.050;11.036;2024-02-23T03:15:13;7.80;99.90
5059;DHT22;2548;52.050;11.036;2024-02-23T03:17:41;7.60;99.90
5059;DHT22;2548;52.050;11.036;2024-02-23T03:20:09;7.50;99.90
5059;DHT22;2548;52.050;11.036;2024-02-23T03:22:38;7.50;99.90
5059;DHT22;2548;52.050;11.036;2024-02-23T03:25:06;7.40;99.90
5059;DHT22;2548;52.050;11.036;2024-02-23T03:27:36;7.40;99.90
5059;DHT22;2548;52.050;11.036;2024-02-23T03:30:05;7.30;99.90
5059;DHT22;2548;52.050;11.036;2024-02-23T03:32:34;7.30;99.90
5059;DHT22;2548;52.050;11.036;2024-02-23T03:35:05;7.20;99.90
5059;DHT22;2548;52.050;11.036;2024-02-23T03:37:32;7.20;99.90
5059;DHT22;2548;52.050;11.036;2024-02-23T03:40:01;7.20;99.90
5059;DHT22;2548;52.050;11.036;2024-02-23T03:42:30;7.20;99.90
5059;DHT22;2548;52.050;11.036;2024-02-23T03:44:58;7.20;99.90
5059;DHT22;2548;52.050;11.036;2024-02-23T03:47:25;7.20;99.90
5059;DHT22;2548;52.050;11.036;2024-02-23T03:49:53;7.10;99.90
5059;DHT22;2548;52.050;11.036;2024-02-23T03:52:20;7.10;99.90
5059;DHT22;2548;52.050;11.036;2024-02-23T03:54:48;7.10;99.90
5059;DHT22;2548;52.050;11.036;2024-02-23T03:57:19;7.10;99.90
5059;DHT22;2548;52.050;11.036;2024-02-23T03:59:51;7.10;99.90
5059;DHT22;2548;52.050;11.036;2024-02-23T04:02:20;7.00;99.90
5059;DHT22;2548;52.050;11.036;2024-02-23T04:04:48;7.00;99.90
5059;DHT22;2548;52.050;11.036;2024-02-23T04:07:16;6.90;99.90
5059;DHT22;2548;52.050;11.036;2024-02-23T04:09:43;6.90;99.90
5059;DHT22;2548;52.050;11.036;2024-02-23T04:12:11;6.90;99.90
5059;DHT22;2548;52.050;11.036;2024-02-23T04:14:40;6.80;99.90
5059;DHT22;2548;52.050;11.036;2024-02-23T04:17:07;6.80;99.90
5059;DHT22;2548;52.050;11.036;2024-02-23T04:19:35;6.80;99.90
5059;DHT22;2548;52.050;11.036;2024-02-23T04:22:05;6.80;99.90
5059;DHT22;2548;52.050;11.036;2024-02-23T04:24:35;6.70;99.90
5059;DHT22;2548;52.050;11.036;2024-02-23T04:27:03;6.70;99.90
5059;DHT22;2548;52.050;11.036;2024-02-23T04:29:30;6.60;99.90
5059;DHT22;2548;52.050;11.036;2024-02-23T04:32:00;6.60;99.90
5059;DHT22;2548;52.050;11.036;2024-02-23T04:34:28;6.60;99.90
5059;DHT22;2548;52.050;11.036;2024-02-23T04:36:55;6.60;99.90
5059;DHT22;2548;52.050;11.036;2024-02-23T04:39:23;6.50;99.90
5059;DHT22;2548;52.050;11.036;2024-02-23T04:41:50;6.50;99.90
5059;DHT22;2548;52.050;11.036;2024-02-23T04:44:18;6.40;99.90
5059;DHT22;2548;52.050;11.036;2024-02-23T04:46:45;6.30;99.90
5059;DHT22;2548;52.050;11.036;2024-02-23T04:49:14;6.30;99.90
5059;DHT22;2548;52.050;11.036;2024-02-23T04:51:41;6.30;99.90
5059;DHT22;2548;52.050;11.036;2024-02-23T04:54:10;6.20;99.90
5059;DHT22;2548;52.050;11.036;2024-02-23T04:56:37;6.30;99.90
5059;DHT22;2548;52.050;11.036;2024-02-23T04:59:05;6.30;99.90
5059;DHT22;2548;52.050;11.036;2024-02-23T05:01:35;6.30;99.90
5059;DHT22;2548;52.050;11.036;2024-02-23T05:04:03;6.30;99.90
5059;DHT22;2548;52.050;11.036;2024-02-23T05:06:32;6.30;99.90
5059;DHT22;2548;52.050;11.036;2024-02-23T05:09:00;6.30;99.90
5059;DHT22;2548;52.050;11.036;2024-02-23T05:11:27;6.40;99.90
5059;DHT22;2548;52.050;11.036;2024-02-23T05:13:55;6.30;99.90
5059;DHT22;2548;52.050;11.036;2024-02-23T05:16:22;6.30;99.90
5059;DHT22;2548;52.050;11.036;2024-02-23T05:18:50;6.30;99.90
5059;DHT22;2548;52.050;11.036;2024-02-23T05:21:17;6.30;99.90
5059;DHT22;2548;52.050;11.036;2024-02-23T05:23:46;6.30;99.90
5059;DHT22;2548;52.050;11.036;2024-02-23T05:26:14;6.30;99.90
5059;DHT22;2548;52.050;11.036;2024-02-23T05:28:41;6.30;99.90
5059;DHT22;2548;52.050;11.036;2024-02-23T05:31:09;6.30;99.90
5059;DHT22;2548;52.050;11.036;2024-02-23T05:33:37;6.30;99.90
5059;DHT22;2548;52.050;11.036;2024-02-23T05:36:05;6.30;99.90
5059;DHT22;2548;52.050;11.036;2024-02-23T05:38:32;6.20;99.90
5059;DHT22;2548;52.050;11.036;2024-02-23T05:41:01;6.10;99.90
5059;DHT22;2548;52.050;11.036;2024-02-23T05:43:29;6.10;99.90
5059;DHT22;2548;52.050;11.036;2024-02-23T05:45:56;6.20;99.90
5059;DHT22;2548;52.050;11.036;2024-02-23T05:48:24;6.20;99.90
5059;DHT22;2548;52.050;11.036;2024-02-23T05:50:52;6.20;99.90
5059;DHT22;2548;52.050;11.036;2024-02-23T05:53:20;6.20;99.90
5059;DHT22;2548;52.050;11.036;2024-02-23T05:55:47;6.20;99.90
5059;DHT22;2548;52.050;11.036;2024-02-23T05:58:16;6.20;99.90
5059;DHT22;2548;52.050;11.036;2024-02-23T06:00:43;6.10;99.90
5059;DHT22;2548;52.050;11.036;2024-02-23T06:03:18;6.10;99.90
5059;DHT22;2548;52.050;11.036;2024-02-23T06:05:46;6.10;99.90
5059;DHT22;2548;52.050;11.036;2024-02-23T06:08:14;6.00;99.90
5059;DHT22;2548;52.050;11.036;2024-02-23T06:10:42;6.10;99.90
5059;DHT22;2548;52.050;11.036;2024-02-23T06:13:09;6.00;99.90
5059;DHT22;2548;52.050;11.036;2024-02-23T06:15:38;6.00;99.90
5059;DHT22;2548;52.050;11.036;2024-02-23T06:18:06;6.00;99.90
5059;DHT22;2548;52.050;11.036;2024-02-23T06:20:34;5.90;99.90
5059;DHT22;2548;52.050;11.036;2024-02-23T06:23:01;5.90;99.90
5059;DHT22;2548;52.050;11.036;2024-02-23T06:25:29;5.90;99.90
5059;DHT22;2548;52.050;11.036;2024-02-23T06:27:57;5.90;99.90
5059;DHT22;2548;52.050;11.036;2024-02-23T06:30:24;5.90;99.90
5059;DHT22;2548;52.050;11.036;2024-02-23T06:32:53;5.80;99.90
5059;DHT22;2548;52.050;11.036;2024-02-23T06:35:21;5.80;99.90
5059;DHT22;2548;52.050;11.036;2024-02-23T06:37:48;5.90;99.90
5059;DHT22;2548;52.050;11.036;2024-02-23T06:40:16;5.90;99.90
5059;DHT22;2548;52.050;11.036;2024-02-23T06:42:44;5.90;99.90
5059;DHT22;2548;52.050;11.036;2024-02-23T06:45:12;5.80;99.90
5059;DHT22;2548;52.050;11.036;2024-02-23T06:47:39;5.80;99.90
5059;DHT22;2548;52.050;11.036;2024-02-23T06:50:09;5.80;99.90
5059;DHT22;2548;52.050;11.036;2024-02-23T06:52:37;5.80;99.90
5059;DHT22;2548;52.050;11.036;2024-02-23T06:55:05;5.90;99.90
5059;DHT22;2548;52.050;11.036;2024-02-23T06:57:33;5.90;99.90
5059;DHT22;2548;52.050;11.036;2024-02-23T07:00:00;5.90;99.90
5059;DHT22;2548;52.050;11.036;2024-02-23T07:02:28;5.90;99.90
5059;DHT22;2548;52.050;11.036;2024-02-23T07:04:57;5.90;99.90
5059;DHT22;2548;52.050;11.036;2024-02-23T07:07:26;5.90;99.90
5059;DHT22;2548;52.050;11.036;2024-02-23T07:09:54;6.00;99.90
5059;DHT22;2548;52.050;11.036;2024-02-23T07:12:21;6.00;99.90
5059;DHT22;2548;52.050;11.036;2024-02-23T07:14:49;6.10;99.90
5059;DHT22;2548;52.050;11.036;2024-02-23T07:17:16;6.10;99.90
5059;DHT22;2548;52.050;11.036;2024-02-23T07:19:45;6.20;99.90
5059;DHT22;2548;52.050;11.036;2024-02-23T07:22:12;6.30;99.90
5059;DHT22;2548;52.050;11.036;2024-02-23T07:24:43;6.30;99.90
5059;DHT22;2548;52.050;11.036;2024-02-23T07:27:10;6.30;99.90
5059;DHT22;2548;52.050;11.036;2024-02-23T07:29:38;6.40;99.90
5059;DHT22;2548;52.050;11.036;2024-02-23T07:32:06;6.50;99.90
5059;DHT22;2548;52.050;11.036;2024-02-23T07:34:33;6.50;99.90
5059;DHT22;2548;52.050;11.036;2024-02-23T07:37:01;6.60;99.90
5059;DHT22;2548;52.050;11.036;2024-02-23T07:39:28;6.70;99.90
5059;DHT22;2548;52.050;11.036;2024-02-23T07:41:57;6.80;99.90
5059;DHT22;2548;52.050;11.036;2024-02-23T07:44:25;6.80;99.90
5059;DHT22;2548;52.050;11.036;2024-02-23T07:46:52;6.90;99.90
5059;DHT22;2548;52.050;11.036;2024-02-23T07:49:21;7.00;99.90
5059;DHT22;2548;52.050;11.036;2024-02-23T07:51:49;7.10;99.90
5059;DHT22;2548;52.050;11.036;2024-02-23T07:54:17;7.20;99.90
5059;DHT22;2548;52.050;11.036;2024-02-23T07:56:44;7.20;99.90
5059;DHT22;2548;52.050;11.036;2024-02-23T07:59:13;7.20;99.90
5059;DHT22;2548;52.050;11.036;2024-02-23T08:01:40;7.30;99.90
5059;DHT22;2548;52.050;11.036;2024-02-23T08:04:08;7.40;99.90
5059;DHT22;2548;52.050;11.036;2024-02-23T08:06:36;7.40;99.90
5059;DHT22;2548;52.050;11.036;2024-02-23T08:09:03;7.50;99.90
5059;DHT22;2548;52.050;11.036;2024-02-23T08:11:31;7.50;99.90
5059;DHT22;2548;52.050;11.036;2024-02-23T08:13:59;7.60;99.90
5059;DHT22;2548;52.050;11.036;2024-02-23T08:16:29;7.60;99.90
5059;DHT22;2548;52.050;11.036;2024-02-23T08:18:56;7.70;99.90
5059;DHT22;2548;52.050;11.036;2024-02-23T08:21:25;7.70;99.90
5059;DHT22;2548;52.050;11.036;2024-02-23T08:23:53;7.70;99.90
5059;DHT22;2548;52.050;11.036;2024-02-23T08:26:20;7.70;99.90
5059;DHT22;2548;52.050;11.036;2024-02-23T08:28:48;7.80;99.90
5059;DHT22;2548;52.050;11.036;2024-02-23T08:31:15;7.90;99.90
5059;DHT22;2548;52.050;11.036;2024-02-23T08:33:44;8.00;99.90
5059;DHT22;2548;52.050;11.036;2024-02-23T08:36:13;8.00;99.90
5059;DHT22;2548;52.050;11.036;2024-02-23T08:38:40;8.10;99.90
5059;DHT22;2548;52.050;11.036;2024-02-23T08:41:07;8.10;99.90
5059;DHT22;2548;52.050;11.036;2024-02-23T08:43:35;8.00;99.90
5059;DHT22;2548;52.050;11.036;2024-02-23T08:46:03;8.00;99.90
5059;DHT22;2548;52.050;11.036;2024-02-23T08:48:30;8.00;99.90
5059;DHT22;2548;52.050;11.036;2024-02-23T08:50:59;8.00;99.90
5059;DHT22;2548;52.050;11.036;2024-02-23T08:53:26;8.10;99.90
5059;DHT22;2548;52.050;11.036;2024-02-23T08:55:54;8.00;99.90
5059;DHT22;2548;52.050;11.036;2024-02-23T08:58:21;7.90;99.90
5059;DHT22;2548;52.050;11.036;2024-02-23T09:00:49;7.90;99.90
5059;DHT22;2548;52.050;11.036;2024-02-23T09:03:16;7.90;99.90
5059;DHT22;2548;52.050;11.036;2024-02-23T09:05:43;7.90;99.90
5059;DHT22;2548;52.050;11.036;2024-02-23T09:08:14;7.90;99.90
5059;DHT22;2548;52.050;11.036;2024-02-23T09:10:42;7.90;99.90
5059;DHT22;2548;52.050;11.036;2024-02-23T09:13:10;7.90;99.90
5059;DHT22;2548;52.050;11.036;2024-02-23T09:15:38;7.80;99.90
5059;DHT22;2548;52.050;11.036;2024-02-23T09:18:06;7.80;99.90
5059;DHT22;2548;52.050;11.036;2024-02-23T09:20:33;7.80;99.90
5059;DHT22;2548;52.050;11.036;2024-02-23T09:23:00;7.80;99.90
5059;DHT22;2548;52.050;11.036;2024-02-23T09:25:30;7.80;99.90
5059;DHT22;2548;52.050;11.036;2024-02-23T09:27:58;7.90;99.90
5059;DHT22;2548;52.050;11.036;2024-02-23T09:30:25;8.00;99.90
5059;DHT22;2548;52.050;11.036;2024-02-23T09:32:53;8.00;99.90
5059;DHT22;2548;52.050;11.036;2024-02-23T09:35:20;8.00;99.90
5059;DHT22;2548;52.050;11.036;2024-02-23T09:37:48;8.00;99.90
5059;DHT22;2548;52.050;11.036;2024-02-23T09:40:16;8.00;99.90
5059;DHT22;2548;52.050;11.036;2024-02-23T09:42:49;8.00;99.90
5059;DHT22;2548;52.050;11.036;2024-02-23T09:45:21;8.10;99.90
5059;DHT22;2548;52.050;11.036;2024-02-23T09:47:49;8.20;99.90
5059;DHT22;2548;52.050;11.036;2024-02-23T09:50:18;8.30;99.90
5059;DHT22;2548;52.050;11.036;2024-02-23T09:52:47;8.40;99.90
5059;DHT22;2548;52.050;11.036;2024-02-23T09:55:16;8.50;99.90
5059;DHT22;2548;52.050;11.036;2024-02-23T09:57:48;8.60;99.90
5059;DHT22;2548;52.050;11.036;2024-02-23T10:00:16;8.70;99.90
5059;DHT22;2548;52.050;11.036;2024-02-23T10:02:45;8.70;99.90
5059;DHT22;2548;52.050;11.036;2024-02-23T10:05:14;8.70;99.90
5059;DHT22;2548;52.050;11.036;2024-02-23T10:07:43;8.80;99.90
5059;DHT22;2548;52.050;11.036;2024-02-23T10:10:12;8.90;99.90
5059;DHT22;2548;52.050;11.036;2024-02-23T10:12:39;9.00;99.90
5059;DHT22;2548;52.050;11.036;2024-02-23T10:15:09;9.00;99.90
5059;DHT22;2548;52.050;11.036;2024-02-23T10:17:36;9.10;99.90
5059;DHT22;2548;52.050;11.036;2024-02-23T10:20:05;9.10;99.90
5059;DHT22;2548;52.050;11.036;2024-02-23T10:22:33;9.20;99.90
5059;DHT22;2548;52.050;11.036;2024-02-23T10:25:01;9.20;99.90
5059;DHT22;2548;52.050;11.036;2024-02-23T10:27:29;9.20;99.90
5059;DHT22;2548;52.050;11.036;2024-02-23T10:29:56;9.20;99.90
5059;DHT22;2548;52.050;11.036;2024-02-23T10:32:27;9.20;99.90
5059;DHT22;2548;52.050;11.036;2024-02-23T10:34:59;9.40;99.90
5059;DHT22;2548;52.050;11.036;2024-02-23T10:37:28;9.30;99.90
5059;DHT22;2548;52.050;11.036;2024-02-23T10:39:57;9.30;99.90
5059;DHT22;2548;52.050;11.036;2024-02-23T10:42:30;9.50;99.90
5059;DHT22;2548;52.050;11.036;2024-02-23T10:45:01;9.60;99.90
5059;DHT22;2548;52.050;11.036;2024-02-23T10:47:32;9.70;99.90
5059;DHT22;2548;52.050;11.036;2024-02-23T10:50:01;9.80;99.90
5059;DHT22;2548;52.050;11.036;2024-02-23T10:52:29;9.90;99.90
5059;DHT22;2548;52.050;11.036;2024-02-23T10:54:57;10.00;99.90
5059;DHT22;2548;52.050;11.036;2024-02-23T10:57:27;10.10;99.90
5059;DHT22;2548;52.050;11.036;2024-02-23T11:00:01;10.20;99.90
5059;DHT22;2548;52.050;11.036;2024-02-23T11:02:36;10.10;99.90
5059;DHT22;2548;52.050;11.036;2024-02-23T11:05:07;10.10;99.90
5059;DHT22;2548;52.050;11.036;2024-02-23T11:07:38;10.20;99.90
5059;DHT22;2548;52.050;11.036;2024-02-23T11:10:07;10.20;99.90
5059;DHT22;2548;52.050;11.036;2024-02-23T11:12:36;10.40;99.90
5059;DHT22;2548;52.050;11.036;2024-02-23T11:15:04;10.40;99.90
5059;DHT22;2548;52.050;11.036;2024-02-23T11:17:35;10.40;99.90
5059;DHT22;2548;52.050;11.036;2024-02-23T11:20:04;10.50;99.90
5059;DHT22;2548;52.050;11.036;2024-02-23T11:22:33;10.60;99.90
5059;DHT22;2548;52.050;11.036;2024-02-23T11:25:03;10.60;99.90
5059;DHT22;2548;52.050;11.036;2024-02-23T11:27:32;10.60;99.90
5059;DHT22;2548;52.050;11.036;2024-02-23T11:30:02;10.70;99.90
5059;DHT22;2548;52.050;11.036;2024-02-23T11:32:39;10.90;99.90
5059;DHT22;2548;52.050;11.036;2024-02-23T11:35:10;11.00;99.90
5059;DHT22;2548;52.050;11.036;2024-02-23T11:37:46;10.90;99.90
5059;DHT22;2548;52.050;11.036;2024-02-23T11:40:13;11.00;99.90
5059;DHT22;2548;52.050;11.036;2024-02-23T11:42:42;11.10;99.90
5059;DHT22;2548;52.050;11.036;2024-02-23T11:45:10;11.10;99.90
5059;DHT22;2548;52.050;11.036;2024-02-23T11:47:39;11.10;99.90
5059;DHT22;2548;52.050;11.036;2024-02-23T11:50:08;11.10;99.90
5059;DHT22;2548;52.050;11.036;2024-02-23T11:52:37;11.20;99.90
5059;DHT22;2548;52.050;11.036;2024-02-23T11:55:06;11.20;99.90
5059;DHT22;2548;52.050;11.036;2024-02-23T11:57:35;11.20;99.90
5059;DHT22;2548;52.050;11.036;2024-02-23T12:00:02;11.20;99.90
5059;DHT22;2548;52.050;11.036;2024-02-23T12:02:31;11.30;99.90
5059;DHT22;2548;52.050;11.036;2024-02-23T12:05:00;11.30;99.90
5059;DHT22;2548;52.050;11.036;2024-02-23T12:07:29;11.30;99.90
5059;DHT22;2548;52.050;11.036;2024-02-23T12:09:56;11.30;99.90
5059;DHT22;2548;52.050;11.036;2024-02-23T12:12:25;11.40;99.90
5059;DHT22;2548;52.050;11.036;2024-02-23T12:14:53;11.50;99.90
5059;DHT22;2548;52.050;11.036;2024-02-23T12:17:20;11.50;99.90
5059;DHT22;2548;52.050;11.036;2024-02-23T12:19:48;11.40;99.90
5059;DHT22;2548;52.050;11.036;2024-02-23T12:22:17;11.40;99.90
5059;DHT22;2548;52.050;11.036;2024-02-23T12:24:45;11.40;99.90
5059;DHT22;2548;52.050;11.036;2024-02-23T12:27:16;11.40;99.90
5059;DHT22;2548;52.050;11.036;2024-02-23T12:29:51;11.40;99.90
5059;DHT22;2548;52.050;11.036;2024-02-23T12:32:20;11.40;99.90
5059;DHT22;2548;52.050;11.036;2024-02-23T12:34:48;11.40;99.90
5059;DHT22;2548;52.050;11.036;2024-02-23T12:37:18;11.50;99.90
5059;DHT22;2548;52.050;11.036;2024-02-23T12:39:45;11.60;99.90
5059;DHT22;2548;52.050;11.036;2024-02-23T12:42:13;11.60;99.90
5059;DHT22;2548;52.050;11.036;2024-02-23T12:44:40;11.50;99.90
5059;DHT22;2548;52.050;11.036;2024-02-23T12:47:11;11.60;99.90
5059;DHT22;2548;52.050;11.036;2024-02-23T12:49:39;11.60;99.90
5059;DHT22;2548;52.050;11.036;2024-02-23T12:52:07;11.50;99.90
5059;DHT22;2548;52.050;11.036;2024-02-23T12:54:36;11.50;99.90
5059;DHT22;2548;52.050;11.036;2024-02-23T12:57:03;11.50;99.90
5059;DHT22;2548;52.050;11.036;2024-02-23T12:59:31;11.50;99.90
5059;DHT22;2548;52.050;11.036;2024-02-23T13:01:59;11.60;99.90
5059;DHT22;2548;52.050;11.036;2024-02-23T13:04:26;11.50;99.90
5059;DHT22;2548;52.050;11.036;2024-02-23T13:06:54;11.40;99.90
5059;DHT22;2548;52.050;11.036;2024-02-23T13:09:24;11.40;99.90
5059;DHT22;2548;52.050;11.036;2024-02-23T13:11:53;11.50;99.90
5059;DHT22;2548;52.050;11.036;2024-02-23T13:14:21;11.50;99.90
5059;DHT22;2548;52.050;11.036;2024-02-23T13:16:48;11.30;99.90
5059;DHT22;2548;52.050;11.036;2024-02-23T13:19:16;11.10;99.90
5059;DHT22;2548;52.050;11.036;2024-02-23T13:21:43;11.00;99.90
5059;DHT22;2548;52.050;11.036;2024-02-23T13:24:11;10.80;99.90
5059;DHT22;2548;52.050;11.036;2024-02-23T13:26:38;10.70;99.90
5059;DHT22;2548;52.050;11.036;2024-02-23T13:29:08;10.60;99.90
5059;DHT22;2548;52.050;11.036;2024-02-23T13:31:35;10.50;99.90
5059;DHT22;2548;52.050;11.036;2024-02-23T13:34:04;10.50;99.90
5059;DHT22;2548;52.050;11.036;2024-02-23T13:36:31;10.60;99.90
5059;DHT22;2548;52.050;11.036;2024-02-23T13:38:59;10.60;99.90
5059;DHT22;2548;52.050;11.036;2024-02-23T13:41:27;10.50;99.90
5059;DHT22;2548;52.050;11.036;2024-02-23T13:43:55;10.40;99.90
5059;DHT22;2548;52.050;11.036;2024-02-23T13:46:23;10.30;99.90
5059;DHT22;2548;52.050;11.036;2024-02-23T13:49:02;10.10;99.90
5059;DHT22;2548;52.050;11.036;2024-02-23T13:51:30;10.10;99.90
5059;DHT22;2548;52.050;11.036;2024-02-23T13:53:58;10.00;99.90
5059;DHT22;2548;52.050;11.036;2024-02-23T13:56:25;10.00;99.90
5059;DHT22;2548;52.050;11.036;2024-02-23T13:58:53;9.90;99.90
5059;DHT22;2548;52.050;11.036;2024-02-23T14:01:20;9.90;99.90
5059;DHT22;2548;52.050;11.036;2024-02-23T14:03:49;9.80;99.90
5059;DHT22;2548;52.050;11.036;2024-02-23T14:06:16;9.70;99.90
5059;DHT22;2548;52.050;11.036;2024-02-23T14:08:44;9.70;99.90
5059;DHT22;2548;52.050;11.036;2024-02-23T14:11:13;9.70;99.90
5059;DHT22;2548;52.050;11.036;2024-02-23T14:13:41;9.70;99.90
5059;DHT22;2548;52.050;11.036;2024-02-23T14:16:09;9.60;99.90
5059;DHT22;2548;52.050;11.036;2024-02-23T14:18:37;9.60;99.90
5059;DHT22;2548;52.050;11.036;2024-02-23T14:21:07;9.50;99.90
5059;DHT22;2548;52.050;11.036;2024-02-23T14:23:35;9.50;99.90
5059;DHT22;2548;52.050;11.036;2024-02-23T14:26:03;9.60;99.90
5059;DHT22;2548;52.050;11.036;2024-02-23T14:28:31;9.60;99.90
5059;DHT22;2548;52.050;11.036;2024-02-23T14:30:59;9.70;99.90
5059;DHT22;2548;52.050;11.036;2024-02-23T14:33:28;9.70;99.90
5059;DHT22;2548;52.050;11.036;2024-02-23T14:35:55;9.70;99.90
5059;DHT22;2548;52.050;11.036;2024-02-23T14:38:24;9.70;99.90
5059;DHT22;2548;52.050;11.036;2024-02-23T14:40:52;9.90;99.90
5059;DHT22;2548;52.050;11.036;2024-02-23T14:43:19;10.00;99.90
5059;DHT22;2548;52.050;11.036;2024-02-23T14:45:47;10.10;99.90
5059;DHT22;2548;52.050;11.036;2024-02-23T14:48:14;10.10;99.90
5059;DHT22;2548;52.050;11.036;2024-02-23T14:50:44;10.10;99.90
5059;DHT22;2548;52.050;11.036;2024-02-23T14:53:35;10.00;99.90
5059;DHT22;2548;52.050;11.036;2024-02-23T14:56:03;9.90;99.90
5059;DHT22;2548;52.050;11.036;2024-02-23T14:58:31;9.90;99.90
5059;DHT22;2548;52.050;11.036;2024-02-23T15:00:58;9.80;99.90
5059;DHT22;2548;52.050;11.036;2024-02-23T15:03:28;9.80;99.90
5059;DHT22;2548;52.050;11.036;2024-02-23T15:05:57;9.80;99.90
5059;DHT22;2548;52.050;11.036;2024-02-23T15:08:24;9.70;99.90
5059;DHT22;2548;52.050;11.036;2024-02-23T15:10:57;9.70;99.90
5059;DHT22;2548;52.050;11.036;2024-02-23T15:13:27;9.60;99.90
5059;DHT22;2548;52.050;11.036;2024-02-23T15:15:54;9.60;99.90
5059;DHT22;2548;52.050;11.036;2024-02-23T15:18:23;9.60;99.90
5059;DHT22;2548;52.050;11.036;2024-02-23T15:20:52;9.50;99.90
5059;DHT22;2548;52.050;11.036;2024-02-23T15:23:19;9.50;99.90
5059;DHT22;2548;52.050;11.036;2024-02-23T15:25:49;9.40;99.90
5059;DHT22;2548;52.050;11.036;2024-02-23T15:28:18;9.40;99.90
5059;DHT22;2548;52.050;11.036;2024-02-23T15:30:49;9.40;99.90
5059;DHT22;2548;52.050;11.036;2024-02-23T15:33:16;9.30;99.90
5059;DHT22;2548;52.050;11.036;2024-02-23T15:35:44;9.30;99.90
5059;DHT22;2548;52.050;11.036;2024-02-23T15:38:11;9.20;99.90
5059;DHT22;2548;52.050;11.036;2024-02-23T15:40:39;9.20;99.90
5059;DHT22;2548;52.050;11.036;2024-02-23T15:43:06;9.20;99.90
5059;DHT22;2548;52.050;11.036;2024-02-23T15:45:35;9.20;99.90
5059;DHT22;2548;52.050;11.036;2024-02-23T15:48:03;9.20;99.90
5059;DHT22;2548;52.050;11.036;2024-02-23T15:50:31;9.20;99.90
5059;DHT22;2548;52.050;11.036;2024-02-23T15:52:58;9.10;99.90
5059;DHT22;2548;52.050;11.036;2024-02-23T15:55:26;9.10;99.90
5059;DHT22;2548;52.050;11.036;2024-02-23T15:57:53;9.10;99.90
5059;DHT22;2548;52.050;11.036;2024-02-23T16:00:20;9.10;99.90
5059;DHT22;2548;52.050;11.036;2024-02-23T16:02:50;9.00;99.90